Time;durP1;ratioP1;P1;durP2;ratioP2;P2;SDS_P1;SDS_P2;PMS_P1;PMS_P2;Temp;Humidity;BMP_temperature;BMP_pressure;BME280_temperature;BME280_humidity;BME280_pressure;Samples;Min_cycle;Max_cycle;Signal;HPM_P1;HPM_P2
2022/03/01 00:02:08;;;;;;;2.97;2.87;;;16.40;65.00;;;;;;5047770;28;43994;-71
2022/03/01 00:04:36;;;;;;;3.40;3.30;;;16.60;64.80;;;;;;5048466;28;44095;-70
2022/03/01 00:07:07;;;;;;;3.20;3.10;;;16.50;64.30;;;;;;5031861;28;43799;-70
2022/03/01 00:09:35;;;;;;;2.90;2.80;;;16.50;64.30;;;;;;5032024;28;43935;-70
2022/03/01 00:12:05;;;;;;;2.90;2.90;;;16.50;64.40;;;;;;5047369;28;44008;-70
2022/03/01 00:14:34;;;;;;;3.00;2.97;;;16.40;64.60;;;;;;5048440;28;44023;-69
2022/03/01 00:17:03;;;;;;;2.90;2.80;;;16.30;64.60;;;;;;5047715;28;43954;-70
2022/03/01 00:19:32;;;;;;;3.10;3.00;;;16.30;64.90;;;;;;5034226;28;44079;-71
2022/03/01 00:22:00;;;;;;;2.73;2.73;;;16.30;65.10;;;;;;5067462;28;44139;-71
2022/03/01 00:24:30;;;;;;;3.03;3.03;;;16.20;65.00;;;;;;5018344;28;43656;-70
2022/03/01 00:26:59;;;;;;;3.20;3.10;;;16.20;65.10;;;;;;5051121;28;43892;-70
2022/03/01 00:29:27;;;;;;;2.80;2.80;;;16.20;65.20;;;;;;5035035;28;44159;-70
2022/03/01 00:31:55;;;;;;;3.10;3.00;;;16.20;65.30;;;;;;5018295;28;46136;-70
2022/03/01 00:34:24;;;;;;;3.20;3.10;;;16.20;65.30;;;;;;5050757;28;44009;-69
2022/03/01 00:36:52;;;;;;;2.93;2.83;;;16.10;65.30;;;;;;5051362;28;43415;-70
2022/03/01 00:39:21;;;;;;;2.83;2.83;;;16.20;65.60;;;;;;5068092;28;44289;-70
2022/03/01 00:41:50;;;;;;;3.20;3.10;;;16.30;65.40;;;;;;5033887;28;46609;-70
2022/03/01 00:44:19;;;;;;;3.00;3.00;;;16.50;65.00;;;;;;5050522;28;43387;-72
2022/03/01 00:46:48;;;;;;;2.93;2.83;;;16.70;64.50;;;;;;5067617;28;43849;-71
2022/03/01 00:49:17;;;;;;;2.83;2.83;;;16.80;64.00;;;;;;5034647;28;44001;-70
2022/03/01 00:51:45;;;;;;;2.97;2.87;;;16.80;63.60;;;;;;5051136;28;43991;-70
2022/03/01 00:54:13;;;;;;;3.37;3.27;;;16.80;63.60;;;;;;5034529;28;44870;-70
2022/03/01 00:56:42;;;;;;;2.90;2.80;;;16.70;63.70;;;;;;5034639;28;44007;-71
2022/03/01 00:59:12;;;;;;;2.70;2.70;;;16.60;63.90;;;;;;5067310;28;43903;-70
2022/03/01 01:01:41;;;;;;;3.10;3.00;;;16.50;64.10;;;;;;5050292;28;45744;-71
2022/03/01 01:04:09;;;;;;;2.80;2.80;;;16.40;64.30;;;;;;5033567;28;43439;-71
2022/03/01 01:06:37;;;;;;;3.10;3.00;;;16.40;64.70;;;;;;5067581;28;44206;-71
2022/03/01 01:09:05;;;;;;;2.73;2.73;;;16.30;64.60;;;;;;5050663;28;43965;-70
2022/03/01 01:11:34;;;;;;;2.67;2.67;;;16.30;64.80;;;;;;5033840;28;45301;-71
2022/03/01 01:14:02;;;;;;;2.90;2.80;;;16.20;64.90;;;;;;5017627;28;43948;-70
2022/03/01 01:16:32;;;;;;;3.20;3.10;;;16.30;65.10;;;;;;5050525;28;44083;-69
2022/03/01 01:19:00;;;;;;;3.10;3.00;;;16.20;65.30;;;;;;5049985;28;44115;-70
2022/03/01 01:22:39;;;;;;;2.80;2.80;;;16.30;65.30;;;;;;5050690;28;45169;-70
2022/03/01 01:24:17;;;;;;;3.23;3.13;;;16.50;65.00;;;;;;5053271;28;44088;-71
2022/03/01 01:26:45;;;;;;;3.00;3.00;;;16.70;64.30;;;;;;5067319;28;43813;-71
2022/03/01 01:29:15;;;;;;;2.90;2.90;;;16.80;64.00;;;;;;5034170;28;43926;-71
2022/03/01 01:31:44;;;;;;;2.53;2.53;;;16.80;63.70;;;;;;5033592;28;44022;-71
2022/03/01 01:34:12;;;;;;;3.00;2.90;;;16.70;63.70;;;;;;5049482;28;44011;-71
2022/03/01 01:36:42;;;;;;;2.80;2.80;;;16.60;63.80;;;;;;5033742;28;43989;-71
2022/03/01 01:39:10;;;;;;;2.90;2.90;;;16.50;64.00;;;;;;5067853;27;44164;-70
2022/03/01 01:41:39;;;;;;;2.73;2.73;;;16.40;64.20;;;;;;5049745;28;44029;-71
2022/03/01 01:44:08;;;;;;;2.80;2.70;;;16.40;64.50;;;;;;5066349;28;44060;-70
2022/03/01 01:46:36;;;;;;;3.00;2.90;;;16.30;64.50;;;;;;5066410;28;43995;-70
2022/03/01 01:49:06;;;;;;;2.70;2.70;;;16.30;64.80;;;;;;5050344;28;43439;-71
2022/03/01 01:51:35;;;;;;;3.13;3.03;;;16.20;64.80;;;;;;5049738;28;44820;-70
2022/03/01 01:54:04;;;;;;;3.20;3.10;;;16.20;64.90;;;;;;5032793;28;44863;-70
2022/03/01 01:56:32;;;;;;;3.30;3.20;;;16.20;65.00;;;;;;5066560;28;43746;-70
2022/03/01 01:59:00;;;;;;;3.03;2.93;;;16.20;65.20;;;;;;5066049;28;43948;-71
2022/03/01 02:01:29;;;;;;;2.97;2.87;;;16.20;65.30;;;;;;5069147;28;44015;-71
2022/03/01 02:03:58;;;;;;;3.10;3.00;;;16.30;65.00;;;;;;5053721;28;43906;-72
2022/03/01 02:06:27;;;;;;;2.73;2.73;;;16.50;64.60;;;;;;5070420;28;43907;-72
2022/03/01 02:08:56;;;;;;;3.40;3.30;;;16.70;64.00;;;;;;5070833;28;43526;-72
2022/03/01 02:11:27;;;;;;;2.80;2.70;;;16.80;63.80;;;;;;5053893;28;44096;-71
2022/03/01 02:13:55;;;;;;;2.83;2.83;;;16.70;63.60;;;;;;5036880;28;44349;-72
2022/03/01 02:16:24;;;;;;;2.97;2.87;;;16.60;63.60;;;;;;5070499;27;43518;-72
2022/03/01 02:18:52;;;;;;;2.70;2.70;;;16.50;63.80;;;;;;5054697;28;43953;-71
2022/03/01 02:21:22;;;;;;;2.70;2.70;;;16.50;64.10;;;;;;5036477;28;44942;-70
2022/03/01 02:23:51;;;;;;;2.80;2.80;;;16.40;64.40;;;;;;5054177;28;44027;-71
2022/03/01 02:26:19;;;;;;;2.83;2.83;;;16.30;64.50;;;;;;5021085;28;43845;-71
2022/03/01 02:28:48;;;;;;;3.00;3.00;;;16.30;64.60;;;;;;5037625;28;43914;-71
2022/03/01 02:31:16;;;;;;;3.17;3.10;;;16.30;64.80;;;;;;5037300;28;45138;-72
2022/03/01 02:33:44;;;;;;;2.90;2.90;;;16.20;64.90;;;;;;5054336;28;44416;-72
2022/03/01 02:36:12;;;;;;;3.20;3.10;;;16.20;65.00;;;;;;5038883;28;44118;-71
2022/03/01 02:38:42;;;;;;;3.20;3.10;;;16.20;65.10;;;;;;5071909;28;44240;-71
2022/03/01 02:41:11;;;;;;;3.40;3.30;;;16.20;66.10;;;;;;5052973;28;45355;-72
2022/03/01 02:43:39;;;;;;;3.20;3.10;;;16.30;65.40;;;;;;5053642;28;43481;-72
2022/03/01 02:46:07;;;;;;;3.00;2.90;;;16.40;64.80;;;;;;5037433;28;43883;-71
2022/03/01 02:48:37;;;;;;;3.10;3.00;;;16.50;64.50;;;;;;5039083;28;43971;-71
2022/03/01 02:51:06;;;;;;;2.90;2.90;;;16.50;64.30;;;;;;5054228;28;44039;-73
2022/03/01 02:53:36;;;;;;;2.77;2.77;;;16.40;64.30;;;;;;5070563;28;43984;-72
2022/03/01 02:56:07;;;;;;;2.83;2.83;;;16.40;64.40;;;;;;5037018;28;44060;-71
2022/03/01 02:58:35;;;;;;;2.80;2.80;;;16.30;64.50;;;;;;5054940;28;44068;-71
2022/03/01 03:01:03;;;;;;;3.30;3.20;;;16.30;64.70;;;;;;5038116;28;44721;-71
2022/03/01 03:03:32;;;;;;;3.00;2.90;;;16.20;64.70;;;;;;5053354;28;44011;-71
2022/03/01 03:06:00;;;;;;;2.77;2.77;;;16.20;64.90;;;;;;5069533;28;43348;-71
2022/03/01 03:08:28;;;;;;;3.40;3.30;;;16.20;65.00;;;;;;5037415;28;43515;-72
2022/03/01 03:10:57;;;;;;;2.80;2.80;;;16.20;65.10;;;;;;5036995;28;43819;-71
2022/03/01 03:13:27;;;;;;;3.13;3.03;;;16.10;65.10;;;;;;5054689;28;44130;-72
2022/03/01 03:15:55;;;;;;;3.00;3.00;;;16.10;65.10;;;;;;5063365;28;43387;-71
2022/03/01 03:18:24;;;;;;;3.60;3.50;;;16.10;65.10;;;;;;5048599;28;44003;-71
2022/03/01 03:20:52;;;;;;;3.17;3.07;;;16.10;65.40;;;;;;5043207;28;44066;-71
2022/03/01 03:23:20;;;;;;;3.40;3.30;;;16.20;65.40;;;;;;5045902;28;43878;-71
2022/03/01 03:25:49;;;;;;;3.20;3.10;;;16.40;65.00;;;;;;5037719;28;43396;-71
2022/03/01 03:28:17;;;;;;;3.03;3.00;;;16.60;64.60;;;;;;5030201;28;43594;-71
2022/03/01 03:30:49;;;;;;;3.40;3.30;;;16.70;63.80;;;;;;5069592;28;45561;-71
2022/03/01 03:33:18;;;;;;;3.07;2.97;;;16.80;63.50;;;;;;5051791;28;44007;-71
2022/03/01 03:35:46;;;;;;;3.07;2.97;;;16.80;63.40;;;;;;5035837;28;43999;-71
2022/03/01 03:38:15;;;;;;;2.83;2.83;;;16.70;63.40;;;;;;5019621;28;43618;-71
2022/03/01 03:40:43;;;;;;;3.23;3.10;;;16.60;63.60;;;;;;5036863;28;45183;-69
2022/03/01 03:43:11;;;;;;;2.80;2.80;;;16.50;63.80;;;;;;5053002;28;43897;-71
2022/03/01 03:45:40;;;;;;;3.03;2.93;;;16.40;64.00;;;;;;5053816;28;43888;-71
2022/03/01 03:48:10;;;;;;;3.27;3.17;;;16.40;64.30;;;;;;5069355;28;44002;-72
2022/03/01 03:50:39;;;;;;;3.30;3.20;;;16.30;64.50;;;;;;5069327;28;46473;-71
2022/03/01 03:53:07;;;;;;;2.90;2.90;;;16.30;64.50;;;;;;5037925;28;44155;-70
2022/03/01 03:55:35;;;;;;;3.10;3.00;;;16.20;64.70;;;;;;5057385;28;43388;-70
2022/03/01 03:58:03;;;;;;;3.73;3.63;;;16.20;64.80;;;;;;5073652;28;43622;-72
2022/03/01 04:00:32;;;;;;;3.00;3.00;;;16.20;65.00;;;;;;5072692;28;44062;-71
2022/03/01 04:03:00;;;;;;;3.00;2.90;;;16.20;65.30;;;;;;5056207;28;43889;-71
2022/03/01 04:05:30;;;;;;;3.37;3.27;;;16.30;64.90;;;;;;5039431;28;43904;-71
2022/03/01 04:07:59;;;;;;;3.00;3.00;;;16.40;64.40;;;;;;5056533;28;43602;-71
2022/03/01 04:10:27;;;;;;;2.97;2.97;;;16.50;64.20;;;;;;5039212;28;44264;-71
2022/03/01 04:12:56;;;;;;;3.10;3.00;;;16.40;64.00;;;;;;5039483;28;44081;-71
2022/03/01 04:15:24;;;;;;;3.17;3.17;;;16.40;64.20;;;;;;5056785;28;44119;-71
2022/03/01 04:17:52;;;;;;;3.03;2.97;;;16.30;64.30;;;;;;5039726;28;43477;-70
2022/03/01 04:20:21;;;;;;;3.13;3.03;;;16.30;64.50;;;;;;5039250;28;45235;-71
2022/03/01 04:22:51;;;;;;;3.47;3.37;;;16.20;64.50;;;;;;5056145;28;43664;-70
2022/03/01 04:25:20;;;;;;;3.33;3.23;;;16.20;64.70;;;;;;5055426;28;43441;-72
2022/03/01 04:27:48;;;;;;;3.30;3.20;;;16.20;64.90;;;;;;5056012;28;44305;-72
2022/03/01 04:30:17;;;;;;;3.00;2.90;;;16.20;64.90;;;;;;5054963;28;45292;-70
2022/03/01 04:32:46;;;;;;;3.00;3.00;;;16.10;64.90;;;;;;5072264;28;43328;-71
2022/03/01 04:35:14;;;;;;;2.90;2.80;;;16.10;65.00;;;;;;5022675;28;43964;-71
2022/03/01 04:37:43;;;;;;;3.40;3.30;;;16.10;65.00;;;;;;5072508;28;44209;-71
2022/03/01 04:40:14;;;;;;;3.37;3.27;;;16.10;65.10;;;;;;5071347;28;43939;-72
2022/03/01 04:42:42;;;;;;;3.30;3.20;;;16.10;65.40;;;;;;5054843;28;43750;-72
2022/03/01 04:45:11;;;;;;;3.33;3.23;;;16.20;65.20;;;;;;5055794;28;43462;-72
2022/03/01 04:47:40;;;;;;;3.27;3.17;;;16.40;64.70;;;;;;5062079;28;44122;-70
2022/03/01 04:50:11;;;;;;;3.13;3.03;;;16.60;64.20;;;;;;5049635;28;45261;-72
2022/03/01 04:52:39;;;;;;;3.13;3.03;;;16.70;63.60;;;;;;5055109;28;43967;-70
2022/03/01 04:55:12;;;;;;;3.00;2.90;;;16.80;63.30;;;;;;5037124;28;43981;-71
2022/03/01 04:57:40;;;;;;;3.50;3.40;;;16.70;63.30;;;;;;5072060;28;44063;-72
2022/03/01 05:00:11;;;;;;;3.33;3.23;;;16.60;63.40;;;;;;5022976;28;45364;-70
2022/03/01 05:02:40;;;;;;;3.13;3.03;;;16.50;63.50;;;;;;5072454;28;44123;-70
2022/03/01 05:05:10;;;;;;;3.20;3.10;;;16.40;63.80;;;;;;5038963;28;43867;-71
2022/03/01 05:07:56;;;;;;;3.27;3.17;;;16.40;64.10;;;;;;5073322;28;43634;-71
2022/03/01 05:10:25;;;;;;;3.20;3.10;;;16.30;64.30;;;;;;5056545;28;44072;-72
2022/03/01 05:12:54;;;;;;;3.33;3.23;;;16.30;64.50;;;;;;5040474;28;43742;-71
2022/03/01 05:15:23;;;;;;;3.30;3.20;;;16.20;64.40;;;;;;5040441;28;43865;-71
2022/03/01 05:17:51;;;;;;;2.70;2.70;;;16.20;64.60;;;;;;5039795;28;44068;-71
2022/03/01 05:20:20;;;;;;;3.70;3.50;;;16.10;64.60;;;;;;5055835;28;44017;-72
2022/03/01 05:22:48;;;;;;;3.20;3.10;;;16.10;65.00;;;;;;5057398;28;43783;-71
2022/03/01 05:25:17;;;;;;;2.93;2.90;;;16.30;64.90;;;;;;5074553;27;43397;-71
2022/03/01 05:27:48;;;;;;;2.90;2.90;;;16.50;64.60;;;;;;5072306;28;44252;-72
2022/03/01 05:30:16;;;;;;;2.83;2.73;;;16.60;63.80;;;;;;5070918;28;44098;-71
2022/03/01 05:32:46;;;;;;;3.47;3.37;;;16.70;63.40;;;;;;5037991;28;43865;-72
2022/03/01 05:35:14;;;;;;;7.70;4.30;;;16.60;63.10;;;;;;5055303;28;43986;-71
2022/03/01 05:37:43;;;;;;;3.67;3.40;;;16.60;63.20;;;;;;5072753;28;43970;-72
2022/03/01 05:40:12;;;;;;;3.77;3.53;;;16.50;63.50;;;;;;5037227;28;44273;-71
2022/03/01 05:42:42;;;;;;;3.70;3.50;;;16.40;63.80;;;;;;5071287;28;43986;-72
2022/03/01 05:45:12;;;;;;;6.23;4.27;;;16.30;64.10;;;;;;5038660;28;43896;-71
2022/03/01 05:47:40;;;;;;;4.30;4.00;;;16.30;64.30;;;;;;5066982;28;44007;-72
2022/03/01 05:50:10;;;;;;;4.40;4.10;;;16.20;64.40;;;;;;5065377;28;44346;-71
2022/03/01 05:52:44;;;;;;;6.60;4.50;;;16.20;64.40;;;;;;5048204;28;44010;-71
2022/03/01 05:55:12;;;;;;;4.83;4.43;;;16.20;64.60;;;;;;5037773;28;44123;-72
2022/03/01 05:57:41;;;;;;;7.73;4.93;;;16.10;64.60;;;;;;5054545;28;43486;-71
2022/03/01 06:00:13;;;;;;;9.33;5.13;;;16.10;64.60;;;;;;5071091;28;44948;-70
2022/03/01 06:02:41;;;;;;;8.13;5.20;;;16.10;64.90;;;;;;5071917;28;44929;-71
2022/03/01 06:05:11;;;;;;;7.27;5.43;;;16.20;65.00;;;;;;5037434;28;43928;-71
2022/03/01 06:07:39;;;;;;;7.27;5.53;;;16.30;64.60;;;;;;5055077;28;43984;-71
2022/03/01 06:10:09;;;;;;;7.80;5.33;;;16.50;64.00;;;;;;5053094;28;44782;-71
2022/03/01 06:12:38;;;;;;;7.40;5.40;;;16.70;63.50;;;;;;5071089;28;44078;-71
2022/03/01 06:15:07;;;;;;;6.70;5.47;;;16.80;63.10;;;;;;5070886;28;43423;-71
2022/03/01 06:17:36;;;;;;;7.17;5.17;;;16.70;63.00;;;;;;5070782;28;43498;-70
2022/03/01 06:20:09;;;;;;;6.97;5.47;;;16.60;63.00;;;;;;5054350;28;43848;-72
2022/03/01 06:22:37;;;;;;;7.03;5.40;;;16.60;63.40;;;;;;5037444;28;43921;-71
2022/03/01 06:25:07;;;;;;;9.03;5.97;;;16.50;63.60;;;;;;5070678;28;43410;-71
2022/03/01 06:27:35;;;;;;;9.00;5.43;;;16.30;63.80;;;;;;5038206;28;44028;-71
2022/03/01 06:30:05;;;;;;;8.60;5.70;;;16.30;64.10;;;;;;5071582;28;44693;-72
2022/03/01 06:32:34;;;;;;;7.80;5.80;;;16.20;64.20;;;;;;5072435;28;43970;-71
2022/03/01 06:35:04;;;;;;;7.03;5.40;;;16.20;64.40;;;;;;5054001;28;43993;-70
2022/03/01 06:37:41;;;;;;;7.50;5.40;;;16.20;64.50;;;;;;5071180;28;44100;-71
2022/03/01 06:40:12;;;;;;;7.97;5.93;;;16.10;64.50;;;;;;5037906;28;44990;-72
2022/03/01 06:42:41;;;;;;;11.60;6.33;;;16.10;64.70;;;;;;5048446;28;44153;-70
2022/03/01 06:45:10;;;;;;;7.47;5.97;;;16.20;65.00;;;;;;5031958;28;43926;-72
2022/03/01 06:47:39;;;;;;;7.27;5.50;;;16.30;64.70;;;;;;5048643;28;43560;-72
2022/03/01 06:50:09;;;;;;;6.27;5.67;;;16.40;64.20;;;;;;5064024;28;46366;-71
2022/03/01 06:52:37;;;;;;;7.53;5.60;;;16.40;63.90;;;;;;5037538;28;46389;-71
2022/03/01 06:55:07;;;;;;;6.47;5.23;;;16.40;63.80;;;;;;5021121;28;43375;-72
2022/03/01 06:57:39;;;;;;;7.40;5.50;;;16.30;63.90;;;;;;5038797;28;44063;-71
2022/03/01 07:00:09;;;;;;;6.50;5.43;;;16.30;64.10;;;;;;5054690;28;43912;-70
2022/03/01 07:02:39;;;;;;;6.20;5.10;;;16.20;64.30;;;;;;5069996;28;44376;-71
2022/03/01 07:05:11;;;;;;;5.70;5.10;;;16.20;64.50;;;;;;5054146;28;43974;-71
2022/03/01 07:07:39;;;;;;;7.03;5.60;;;16.10;64.40;;;;;;5072170;28;43962;-70
2022/03/01 07:10:11;;;;;;;6.67;5.40;;;16.10;64.60;;;;;;5072447;28;43693;-71
2022/03/01 07:12:39;;;;;;;6.10;5.53;;;16.00;64.60;;;;;;5071018;28;44460;-70
2022/03/01 07:15:11;;;;;;;5.93;5.40;;;16.00;64.70;;;;;;5037536;28;43373;-71
2022/03/01 07:17:44;;;;;;;5.83;5.33;;;16.00;64.70;;;;;;5072342;28;43383;-71
2022/03/01 07:20:14;;;;;;;6.80;5.60;;;16.10;64.90;;;;;;5055958;28;43704;-71
2022/03/01 07:22:43;;;;;;;6.00;5.47;;;16.00;64.90;;;;;;5055546;28;43378;-72
2022/03/01 07:25:12;;;;;;;6.67;5.67;;;16.00;65.10;;;;;;5071496;28;44051;-71
2022/03/01 07:27:49;;;;;;;5.50;5.00;;;16.20;65.00;;;;;;5039993;28;44129;-71
2022/03/01 07:30:18;;;;;;;6.00;5.00;;;16.40;64.50;;;;;;5058474;28;43802;-71
2022/03/01 07:32:46;;;;;;;7.37;5.80;;;16.50;63.90;;;;;;5042427;28;43890;-71
2022/03/01 07:35:15;;;;;;;8.40;5.80;;;16.70;63.40;;;;;;5074992;28;44094;-71
2022/03/01 07:37:44;;;;;;;6.00;5.50;;;16.70;63.10;;;;;;5040713;28;43849;-72
2022/03/01 07:40:17;;;;;;;5.70;5.10;;;16.70;63.10;;;;;;5035106;28;45711;-71
2022/03/01 07:42:47;;;;;;;6.10;5.50;;;16.60;63.20;;;;;;5073612;28;43925;-72
2022/03/01 07:45:16;;;;;;;5.40;5.00;;;16.50;63.40;;;;;;5041545;28;43439;-70
2022/03/01 07:47:44;;;;;;;5.50;5.07;;;16.40;63.70;;;;;;5076141;27;43999;-71
2022/03/01 07:50:16;;;;;;;5.93;5.43;;;16.30;63.90;;;;;;5073331;28;44028;-71
2022/03/01 07:52:46;;;;;;;5.73;5.23;;;16.30;64.10;;;;;;5057226;28;43862;-71
2022/03/01 07:55:14;;;;;;;7.53;5.43;;;16.20;64.30;;;;;;5040479;28;43547;-71
2022/03/01 07:57:43;;;;;;;6.00;5.37;;;16.10;64.30;;;;;;5042791;28;44088;-71
2022/03/01 08:00:14;;;;;;;5.40;4.90;;;16.10;65.10;;;;;;5040246;28;44115;-70
2022/03/01 08:02:42;;;;;;;5.57;5.07;;;16.10;64.50;;;;;;5056949;28;44135;-71
2022/03/01 08:05:11;;;;;;;4.70;4.40;;;16.10;64.90;;;;;;5039415;28;43928;-69
2022/03/01 08:07:52;;;;;;;5.60;5.13;;;16.10;64.90;;;;;;5058230;28;44066;-73
2022/03/01 08:10:20;;;;;;;5.40;4.90;;;16.30;64.50;;;;;;5073282;28;43916;-72
2022/03/01 08:12:48;;;;;;;5.50;5.10;;;16.40;64.10;;;;;;5055781;28;44099;-72
2022/03/01 08:15:16;;;;;;;4.87;4.47;;;16.40;63.80;;;;;;5039965;28;44056;-70
2022/03/01 08:17:50;;;;;;;5.53;4.87;;;16.30;63.90;;;;;;5056698;28;43597;-71
2022/03/01 08:20:18;;;;;;;5.27;4.77;;;16.30;64.10;;;;;;5039758;28;45910;-71
2022/03/01 08:22:46;;;;;;;4.80;4.57;;;16.20;64.20;;;;;;5055820;28;44132;-70
2022/03/01 08:25:16;;;;;;;5.60;5.20;;;16.20;64.50;;;;;;5039388;28;44004;-71
2022/03/01 08:27:44;;;;;;;5.50;5.00;;;16.10;64.30;;;;;;5057095;28;43665;-71
2022/03/01 08:30:12;;;;;;;4.70;4.40;;;16.10;64.50;;;;;;5038922;28;43995;-71
2022/03/01 08:32:41;;;;;;;5.17;4.80;;;16.10;64.70;;;;;;5038614;28;44462;-70
2022/03/01 08:35:10;;;;;;;4.90;4.60;;;16.10;64.80;;;;;;5055825;28;43948;-70
2022/03/01 08:37:39;;;;;;;5.47;5.03;;;16.00;64.80;;;;;;5056081;28;44117;-71
2022/03/01 08:40:11;;;;;;;5.30;4.80;;;16.00;64.90;;;;;;5037558;28;45359;-73
2022/03/01 08:42:40;;;;;;;5.20;4.80;;;16.00;64.90;;;;;;5049352;28;44220;-71
2022/03/01 08:45:10;;;;;;;5.17;4.77;;;16.00;65.70;;;;;;5073922;28;43933;-71
2022/03/01 08:47:40;;;;;;;5.03;4.63;;;16.00;65.10;;;;;;5055912;28;44182;-72
2022/03/01 08:50:10;;;;;;;5.40;4.87;;;16.20;65.00;;;;;;5054432;28;43992;-72
2022/03/01 08:52:58;;;;;;;5.27;4.87;;;16.30;65.30;;;;;;5068092;28;43951;-71
2022/03/01 08:55:26;;;;;;;4.83;4.53;;;16.50;63.90;;;;;;5067088;28;43882;-72
2022/03/01 08:57:56;;;;;;;5.27;4.87;;;16.70;63.50;;;;;;5049731;28;44243;-71
2022/03/01 09:00:24;;;;;;;5.30;5.00;;;16.70;63.20;;;;;;5071339;28;43743;-71
2022/03/01 09:02:52;;;;;;;5.50;5.10;;;16.60;63.10;;;;;;5055124;28;43969;-72
2022/03/01 09:05:20;;;;;;;4.77;4.47;;;16.50;63.20;;;;;;5055855;28;43902;-71
2022/03/01 09:07:49;;;;;;;4.80;4.33;;;16.50;63.60;;;;;;5057782;28;43582;-72
2022/03/01 09:10:21;;;;;;;4.83;4.53;;;16.40;63.80;;;;;;5039076;28;45698;-71
2022/03/01 09:12:51;;;;;;;4.70;4.40;;;16.30;64.00;;;;;;5040044;28;44040;-72
2022/03/01 09:15:21;;;;;;;4.90;4.50;;;16.20;64.20;;;;;;5038145;28;43746;-71
2022/03/01 09:17:50;;;;;;;5.70;5.13;;;16.20;65.10;;;;;;5072522;28;44050;-71
2022/03/01 09:20:18;;;;;;;4.67;4.40;;;16.20;64.40;;;;;;5039256;28;44710;-70
2022/03/01 09:22:46;;;;;;;5.60;5.10;;;16.10;64.50;;;;;;5037645;28;43832;-71
2022/03/01 09:25:14;;;;;;;5.50;5.00;;;16.10;64.60;;;;;;5071665;28;43426;-72
2022/03/01 09:27:42;;;;;;;4.70;4.33;;;16.10;65.00;;;;;;5054022;28;44158;-71
2022/03/01 09:30:13;;;;;;;4.60;4.40;;;16.10;64.90;;;;;;5037157;28;46467;-71
2022/03/01 09:32:43;;;;;;;5.23;4.83;;;16.30;64.50;;;;;;5070505;28;43933;-72
2022/03/01 09:35:13;;;;;;;4.53;4.23;;;16.30;64.10;;;;;;5038614;28;44216;-71
2022/03/01 09:37:41;;;;;;;4.27;4.07;;;16.30;63.90;;;;;;5071734;27;43455;-72
2022/03/01 09:40:12;;;;;;;4.63;4.33;;;16.30;64.10;;;;;;5071026;28;45169;-71
2022/03/01 09:42:40;;;;;;;4.40;4.20;;;16.30;64.20;;;;;;5054099;28;43916;-72
2022/03/01 09:45:11;;;;;;;4.93;4.53;;;16.20;64.40;;;;;;5054694;28;43861;-72
2022/03/01 09:47:39;;;;;;;4.93;4.57;;;16.10;64.30;;;;;;5054422;28;44041;-70
2022/03/01 09:50:09;;;;;;;4.47;4.23;;;16.10;64.50;;;;;;5071366;28;44067;-71
2022/03/01 09:52:38;;;;;;;4.00;3.80;;;16.10;64.70;;;;;;5037338;28;43963;-71
2022/03/01 09:55:09;;;;;;;4.70;4.40;;;16.00;64.70;;;;;;5071984;28;43789;-71
2022/03/01 09:57:37;;;;;;;4.67;4.37;;;16.00;64.80;;;;;;5072489;28;43907;-71
2022/03/01 10:00:09;;;;;;;4.30;4.10;;;16.10;64.90;;;;;;5036666;28;44131;-71
2022/03/01 10:02:40;;;;;;;4.63;4.33;;;16.00;64.90;;;;;;5072265;28;44123;-72
2022/03/01 10:05:10;;;;;;;4.43;4.17;;;16.00;65.00;;;;;;5071374;28;43985;-71
2022/03/01 10:07:43;;;;;;;4.53;4.20;;;16.00;65.10;;;;;;5056567;28;43716;-71
2022/03/01 10:10:16;;;;;;;3.83;3.73;;;16.10;66.00;;;;;;5055899;28;45016;-70
2022/03/01 10:12:45;;;;;;;4.90;4.60;;;16.20;65.20;;;;;;5032844;28;43355;-71
2022/03/01 10:15:14;;;;;;;5.00;4.60;;;16.40;64.60;;;;;;5070359;28;43945;-71
2022/03/01 10:17:43;;;;;;;4.07;3.87;;;16.60;64.00;;;;;;5054678;28;43588;-71
2022/03/01 10:20:13;;;;;;;4.20;4.00;;;16.70;63.50;;;;;;5036608;28;45468;-72
2022/03/01 10:22:45;;;;;;;4.70;4.40;;;16.70;63.20;;;;;;5053196;28;43924;-71
2022/03/01 10:25:14;;;;;;;4.30;4.10;;;16.70;63.20;;;;;;5053309;28;43364;-71
2022/03/01 10:27:43;;;;;;;4.50;4.30;;;16.60;63.50;;;;;;5054603;28;44089;-71
2022/03/01 10:30:13;;;;;;;4.60;4.30;;;16.50;63.70;;;;;;5053144;28;43808;-71
2022/03/01 10:32:44;;;;;;;3.63;3.53;;;16.40;63.90;;;;;;5071372;28;43716;-71
2022/03/01 10:35:14;;;;;;;4.27;4.07;;;16.30;64.10;;;;;;5072041;28;43970;-71
2022/03/01 10:37:45;;;;;;;4.20;4.00;;;16.30;64.30;;;;;;5072667;28;43396;-72
2022/03/01 10:40:19;;;;;;;4.27;4.07;;;16.20;64.40;;;;;;5069436;28;43682;-71
2022/03/01 10:42:59;;;;;;;3.93;3.80;;;16.20;64.40;;;;;;5070817;27;43752;-70
2022/03/01 10:45:38;;;;;;;4.20;4.03;;;16.20;64.60;;;;;;5069831;28;43467;-71
2022/03/01 10:48:07;;;;;;;4.20;4.00;;;16.10;64.70;;;;;;5053049;28;43863;-71
2022/03/01 10:50:37;;;;;;;4.40;4.20;;;16.20;65.10;;;;;;5069465;28;44895;-71
2022/03/01 10:53:06;;;;;;;4.10;3.90;;;16.30;64.80;;;;;;5069059;28;43949;-71
2022/03/01 10:55:38;;;;;;;4.30;4.10;;;16.40;64.30;;;;;;5052562;28;43892;-71
2022/03/01 10:58:25;;;;;;;4.20;4.00;;;16.40;64.00;;;;;;5070413;28;43967;-71
2022/03/01 11:01:21;;;;;;;4.10;3.90;;;16.30;64.00;;;;;;5070733;27;44796;-71
2022/03/01 11:03:52;;;;;;;4.30;4.00;;;16.30;64.20;;;;;;5066091;28;43449;-72
2022/03/01 11:06:26;;;;;;;4.30;4.10;;;16.20;64.40;;;;;;5070853;28;44003;-71
2022/03/01 11:08:59;;;;;;;4.27;3.97;;;16.20;64.50;;;;;;5065734;28;43460;-71
2022/03/01 11:11:39;;;;;;;4.37;4.17;;;16.10;64.70;;;;;;5021295;28;45577;-71
2022/03/01 11:14:24;;;;;;;4.20;4.00;;;16.10;64.80;;;;;;5071243;28;43824;-71
2022/03/01 11:17:04;;;;;;;4.10;3.90;;;16.10;64.90;;;;;;5071996;28;43422;-72
2022/03/01 11:20:06;;;;;;;3.60;3.40;;;16.10;65.00;;;;;;5070795;28;44225;-71
2022/03/01 11:22:45;;;;;;;3.70;3.60;;;16.00;65.00;;;;;;5065830;28;43823;-72
2022/03/01 11:25:27;;;;;;;3.70;3.60;;;16.10;65.10;;;;;;5069520;28;44267;-71
2022/03/01 11:28:11;;;;;;;4.23;4.03;;;16.10;65.10;;;;;;5070110;28;43975;-71
2022/03/01 11:30:51;;;;;;;4.20;4.00;;;16.10;65.30;;;;;;5069518;28;44182;-71
2022/03/01 11:33:35;;;;;;;4.00;3.80;;;16.20;65.20;;;;;;5071644;28;43923;-70
2022/03/01 11:36:11;;;;;;;3.97;3.77;;;16.30;64.60;;;;;;5065441;28;43890;-72
2022/03/01 11:38:45;;;;;;;3.77;3.60;;;16.50;64.20;;;;;;5068374;28;44106;-70
2022/03/01 11:41:20;;;;;;;3.83;3.63;;;16.70;63.60;;;;;;5062927;28;44260;-70
2022/03/01 11:43:53;;;;;;;4.00;3.80;;;16.70;63.20;;;;;;5046322;28;43989;-72
2022/03/01 11:46:28;;;;;;;3.77;3.67;;;16.70;63.30;;;;;;5053851;28;43392;-71
2022/03/01 11:48:57;;;;;;;3.90;3.80;;;16.60;63.50;;;;;;5053302;28;44050;-71
2022/03/01 11:51:36;;;;;;;3.97;3.77;;;16.50;63.70;;;;;;5054570;28;43431;-71
2022/03/01 11:54:07;;;;;;;3.80;3.60;;;16.50;64.00;;;;;;5070860;27;43821;-71
2022/03/01 11:56:35;;;;;;;3.80;3.67;;;16.40;64.10;;;;;;5069451;28;43415;-71
2022/03/01 11:59:05;;;;;;;3.67;3.57;;;16.40;64.40;;;;;;5036214;28;43890;-71
2022/03/01 12:01:34;;;;;;;3.70;3.60;;;16.30;64.50;;;;;;5052866;28;43955;-72
2022/03/01 12:04:03;;;;;;;3.60;3.50;;;16.30;64.60;;;;;;5070265;28;44991;-71
2022/03/01 12:06:32;;;;;;;3.90;3.80;;;16.30;64.70;;;;;;5052972;28;44058;-71
2022/03/01 12:09:01;;;;;;;3.83;3.73;;;16.30;64.70;;;;;;5069951;28;43949;-71
2022/03/01 12:11:36;;;;;;;3.53;3.43;;;16.20;64.80;;;;;;5036322;28;43885;-71
2022/03/01 12:14:07;;;;;;;3.87;3.70;;;16.30;64.80;;;;;;5051593;28;46554;-72
2022/03/01 12:16:36;;;;;;;3.30;3.20;;;16.50;64.40;;;;;;5056551;28;44782;-72
2022/03/01 12:19:07;;;;;;;3.70;3.60;;;16.50;64.00;;;;;;5055823;28;43897;-71
2022/03/01 12:21:35;;;;;;;3.90;3.70;;;16.50;64.20;;;;;;5071848;28;43980;-71
2022/03/01 12:24:05;;;;;;;3.50;3.40;;;16.40;64.20;;;;;;5039773;28;45164;-71
2022/03/01 12:26:44;;;;;;;3.80;3.70;;;16.40;64.50;;;;;;5057063;28;44043;-71
2022/03/01 12:29:14;;;;;;;3.77;3.63;;;16.40;64.60;;;;;;5072477;28;43984;-72
2022/03/01 12:31:42;;;;;;;3.40;3.30;;;16.30;64.50;;;;;;5074648;27;43968;-71
2022/03/01 12:34:11;;;;;;;3.80;3.60;;;16.30;64.80;;;;;;5040293;28;44695;-72
2022/03/01 12:36:39;;;;;;;3.40;3.30;;;16.30;64.90;;;;;;5039947;28;43953;-72
2022/03/01 12:39:08;;;;;;;3.47;3.37;;;16.30;65.00;;;;;;5038369;28;44004;-72
2022/03/01 12:41:43;;;;;;;3.43;3.33;;;16.30;65.10;;;;;;5057653;28;44051;-72
2022/03/01 12:44:12;;;;;;;3.90;3.80;;;16.30;65.10;;;;;;5055501;28;44356;-71
2022/03/01 12:46:41;;;;;;;3.50;3.40;;;16.30;65.20;;;;;;5039357;28;43956;-70
2022/03/01 12:49:11;;;;;;;3.57;3.47;;;16.20;65.10;;;;;;5073303;28;44002;-71
2022/03/01 12:51:39;;;;;;;3.77;3.67;;;16.30;65.20;;;;;;5055334;28;44110;-71
2022/03/01 12:54:09;;;;;;;3.40;3.20;;;16.30;65.10;;;;;;5070555;28;45275;-72
2022/03/01 12:56:38;;;;;;;3.20;3.10;;;16.40;64.60;;;;;;5055250;28;43979;-70
2022/03/01 12:59:09;;;;;;;3.47;3.37;;;16.60;64.30;;;;;;5074776;28;43987;-71
2022/03/01 13:01:40;;;;;;;3.20;3.10;;;16.80;63.80;;;;;;5074184;28;43888;-71
2022/03/01 13:04:09;;;;;;;3.20;3.10;;;16.80;63.40;;;;;;5053188;28;44012;-71